createdAt,value
2019-05-13T00:00:35.350Z,0
2019-05-13T00:01:35.429Z,0
2019-05-13T00:02:35.354Z,0
2019-05-13T00:03:35.431Z,0
2019-05-13T00:04:35.469Z,0
2019-05-13T00:05:35.289Z,0
2019-05-13T00:06:49.918Z,0
2019-05-13T00:07:35.322Z,0
2019-05-13T00:08:35.297Z,0
2019-05-13T00:09:35.384Z,0
2019-05-13T00:10:35.285Z,0
2019-05-13T00:11:35.343Z,0
2019-05-13T00:12:35.561Z,0
2019-05-13T00:13:35.404Z,0
2019-05-13T00:14:35.383Z,0
2019-05-13T00:15:35.359Z,0
2019-05-13T00:16:35.428Z,0
2019-05-13T00:17:35.355Z,0
2019-05-13T00:18:35.432Z,0
2019-05-13T00:19:35.357Z,0
2019-05-13T00:20:35.438Z,0
2019-05-13T00:21:35.357Z,0
2019-05-13T00:22:35.363Z,0
2019-05-13T00:23:35.430Z,0
2019-05-13T00:24:35.437Z,0
2019-05-13T00:25:35.431Z,0
2019-05-13T00:26:35.389Z,0
2019-05-13T00:27:35.413Z,0
2019-05-13T00:28:35.398Z,0
2019-05-13T00:29:35.395Z,0
2019-05-13T00:30:35.457Z,0
2019-05-13T00:31:35.402Z,0
2019-05-13T00:32:35.479Z,0
2019-05-13T00:33:35.404Z,0
2019-05-13T00:34:35.401Z,0
2019-05-13T00:35:35.333Z,0
2019-05-13T00:36:35.439Z,0
2019-05-13T00:37:35.386Z,0
2019-05-13T00:38:35.385Z,0
2019-05-13T00:39:35.455Z,0
2019-05-13T00:40:35.423Z,0
2019-05-13T00:41:35.476Z,0
2019-05-13T00:42:35.473Z,0
2019-05-13T00:43:35.414Z,0
2019-05-13T00:44:35.502Z,0
2019-05-13T00:45:35.404Z,0
2019-05-13T00:46:35.438Z,0
2019-05-13T00:47:35.404Z,0
2019-05-13T00:48:35.358Z,0
2019-05-13T00:49:35.337Z,0
2019-05-13T00:50:35.442Z,0
2019-05-13T00:51:35.393Z,0
2019-05-13T00:52:35.442Z,0
2019-05-13T00:53:35.526Z,0
2019-05-13T00:54:35.393Z,0
2019-05-13T00:55:35.442Z,0
2019-05-13T00:56:35.421Z,0
2019-05-13T00:57:35.497Z,0
2019-05-13T00:58:35.383Z,0
2019-05-13T00:59:35.418Z,0
2019-05-13T01:00:35.483Z,0
2019-05-13T01:01:35.443Z,0
2019-05-13T01:02:35.491Z,0
2019-05-13T01:03:35.504Z,0
2019-05-13T01:04:35.504Z,0
2019-05-13T01:05:35.431Z,0
2019-05-13T01:06:35.464Z,0
2019-05-13T01:07:35.397Z,0
2019-05-13T01:08:35.395Z,0
2019-05-13T01:09:35.473Z,0
2019-05-13T01:10:35.471Z,0
2019-05-13T01:11:35.469Z,0
2019-05-13T01:12:35.404Z,0
2019-05-13T01:13:35.473Z,0
2019-05-13T01:14:35.417Z,0
2019-05-13T01:15:35.478Z,0
2019-05-13T01:16:35.500Z,0
2019-05-13T01:17:35.511Z,0
2019-05-13T01:18:35.449Z,0
2019-05-13T01:19:35.505Z,0
2019-05-13T01:20:35.499Z,0
2019-05-13T01:21:35.454Z,0
2019-05-13T01:22:35.499Z,0
2019-05-13T01:23:35.497Z,0
2019-05-13T01:24:35.481Z,0
2019-05-13T01:25:35.454Z,0
2019-05-13T01:26:35.501Z,0
2019-05-13T01:27:35.497Z,0
2019-05-13T01:28:35.503Z,0
2019-05-13T01:29:35.438Z,0
2019-05-13T01:30:35.469Z,0
2019-05-13T01:31:35.502Z,0
2019-05-13T01:32:35.462Z,0
2019-05-13T01:33:35.426Z,0
2019-05-13T01:34:35.499Z,0
2019-05-13T01:35:35.507Z,0
2019-05-13T01:36:35.427Z,0
2019-05-13T01:37:42.151Z,0
2019-05-13T01:38:35.420Z,0
2019-05-13T01:39:35.422Z,0
2019-05-13T01:40:35.490Z,0
2019-05-13T01:41:35.432Z,0
2019-05-13T01:42:35.498Z,0
2019-05-13T01:43:35.424Z,0
2019-05-13T01:44:35.461Z,0
2019-05-13T01:45:35.430Z,0
2019-05-13T01:46:35.449Z,0
2019-05-13T01:47:35.516Z,0
2019-05-13T01:48:35.434Z,0
2019-05-13T01:49:35.509Z,0
2019-05-13T01:50:35.508Z,0
2019-05-13T01:51:35.450Z,0
2019-05-13T01:52:35.521Z,0
2019-05-13T01:53:35.516Z,0
2019-05-13T01:54:35.409Z,0
2019-05-13T01:55:35.441Z,0
2019-05-13T01:56:35.538Z,0
2019-05-13T01:57:35.548Z,0
2019-05-13T01:58:35.533Z,0
2019-05-13T01:59:35.405Z,0
2019-05-13T02:00:35.751Z,0
2019-05-13T02:01:35.448Z,0
2019-05-13T02:02:35.408Z,0
2019-05-13T02:03:35.547Z,0
2019-05-13T02:04:35.483Z,0
2019-05-13T02:05:35.481Z,0
2019-05-13T02:06:35.497Z,0
2019-05-13T02:07:35.404Z,0
2019-05-13T02:08:35.498Z,0
2019-05-13T02:09:35.421Z,0
2019-05-13T02:10:35.451Z,0
2019-05-13T02:11:35.419Z,0
2019-05-13T02:12:35.455Z,0
2019-05-13T02:13:35.417Z,0
2019-05-13T02:14:35.434Z,0
2019-05-13T02:15:35.510Z,0
2019-05-13T02:16:35.473Z,0
2019-05-13T02:17:35.471Z,0
2019-05-13T02:18:35.468Z,0
2019-05-13T02:19:35.539Z,0
2019-05-13T02:20:35.458Z,0
2019-05-13T02:21:35.468Z,0
2019-05-13T02:22:35.473Z,0
2019-05-13T02:23:35.542Z,0
2019-05-13T02:24:35.542Z,0
2019-05-13T02:25:35.464Z,0
2019-05-13T02:26:35.375Z,0
2019-05-13T02:27:35.464Z,0
2019-05-13T02:28:35.356Z,0
2019-05-13T02:29:35.498Z,0
2019-05-13T02:30:35.402Z,0
2019-05-13T02:31:45.201Z,0
2019-05-13T02:32:35.473Z,0
2019-05-13T02:33:35.398Z,0
2019-05-13T02:34:35.473Z,0
2019-05-13T02:35:35.383Z,0
2019-05-13T02:36:35.477Z,0
2019-05-13T02:37:35.479Z,0
2019-05-13T02:38:35.973Z,0
2019-05-13T02:39:35.476Z,0
2019-05-13T02:40:35.482Z,0
2019-05-13T02:41:35.546Z,0
2019-05-13T02:42:35.475Z,0
2019-05-13T02:43:35.530Z,0
2019-05-13T02:44:35.488Z,0
2019-05-13T02:45:35.579Z,0
2019-05-13T02:46:35.466Z,0
2019-05-13T02:47:35.485Z,0
2019-05-13T02:48:35.472Z,0
2019-05-13T02:49:35.525Z,0
2019-05-13T02:50:35.523Z,0
2019-05-13T02:51:35.470Z,0
2019-05-13T02:52:35.503Z,0
2019-05-13T02:53:35.442Z,0
2019-05-13T02:54:35.541Z,0
2019-05-13T02:55:35.539Z,0
2019-05-13T02:56:35.501Z,0
2019-05-13T02:57:35.514Z,0
2019-05-13T02:58:35.454Z,0
2019-05-13T02:59:35.452Z,0
2019-05-13T03:00:35.435Z,0
2019-05-13T03:01:35.562Z,0
2019-05-13T03:02:35.424Z,0
2019-05-13T03:03:35.552Z,0
2019-05-13T03:04:35.454Z,0
2019-05-13T03:05:35.550Z,0
2019-05-13T03:06:35.545Z,0
2019-05-13T03:07:35.550Z,0
2019-05-13T03:08:46.191Z,0
2019-05-13T03:09:35.548Z,0
2019-05-13T03:10:35.466Z,0
2019-05-13T03:11:35.430Z,0
2019-05-13T03:12:35.558Z,0
2019-05-13T03:13:35.483Z,0
2019-05-13T03:14:35.547Z,0
2019-05-13T03:15:35.458Z,0
2019-05-13T03:16:35.504Z,0
2019-05-13T03:17:35.582Z,0
2019-05-13T03:18:35.466Z,0
2019-05-13T03:19:35.489Z,0
2019-05-13T03:20:35.519Z,0
2019-05-13T03:21:35.689Z,0
2019-05-13T03:22:35.522Z,0
2019-05-13T03:23:35.572Z,0
2019-05-13T03:24:35.575Z,0
2019-05-13T03:25:35.579Z,0
2019-05-13T03:26:35.594Z,0
2019-05-13T03:27:35.693Z,0
2019-05-13T03:28:35.531Z,0
2019-05-13T03:29:35.554Z,0
2019-05-13T03:30:35.959Z,0
2019-05-13T03:31:36.396Z,0
2019-05-13T03:32:43.497Z,0
2019-05-13T03:33:37.705Z,0
2019-05-13T03:34:36.786Z,0
2019-05-13T03:35:37.134Z,0
2019-05-13T03:36:36.601Z,0
2019-05-13T03:37:35.527Z,0
2019-05-13T03:38:53.636Z,0
2019-05-13T03:39:35.602Z,0
2019-05-13T03:40:35.594Z,0
2019-05-13T03:41:35.524Z,0
2019-05-13T03:42:35.569Z,0
2019-05-13T03:43:35.514Z,0
2019-05-13T03:44:35.600Z,0
2019-05-13T03:45:35.631Z,0
2019-05-13T03:46:35.579Z,0
2019-05-13T03:47:35.502Z,0
2019-05-13T03:48:35.582Z,0
2019-05-13T03:49:35.516Z,0
2019-05-13T03:50:35.584Z,0
2019-05-13T03:51:35.516Z,0
2019-05-13T03:52:35.585Z,0
2019-05-13T03:53:35.584Z,0
2019-05-13T03:54:35.518Z,0
2019-05-13T03:55:35.514Z,0
2019-05-13T03:56:35.619Z,0
2019-05-13T03:57:35.523Z,0
2019-05-13T03:58:35.536Z,0
2019-05-13T03:59:35.531Z,0
2019-05-13T04:00:35.546Z,0
2019-05-13T04:01:35.609Z,0
2019-05-13T04:02:35.602Z,0
2019-05-13T04:03:35.534Z,0
2019-05-13T04:04:35.601Z,0
2019-05-13T04:05:35.546Z,0
2019-05-13T04:06:35.610Z,17
2019-05-13T04:07:35.539Z,22
2019-05-13T04:08:35.538Z,24
2019-05-13T04:09:36.802Z,22
2019-05-13T04:10:35.630Z,18
2019-05-13T04:11:35.606Z,14
2019-05-13T04:12:35.539Z,14
2019-05-13T04:13:35.546Z,15
2019-05-13T04:14:35.604Z,15
2019-05-13T04:15:35.549Z,15
2019-05-13T04:16:35.509Z,15
2019-05-13T04:17:35.531Z,16
2019-05-13T04:18:35.490Z,17
2019-05-13T04:19:35.526Z,14
2019-05-13T04:20:35.601Z,14
2019-05-13T04:21:35.603Z,18
2019-05-13T04:22:35.518Z,18
2019-05-13T04:23:35.537Z,19
2019-05-13T04:24:35.603Z,20
2019-05-13T04:25:39.615Z,21
2019-05-13T04:26:35.577Z,23
2019-05-13T04:27:35.606Z,22
2019-05-13T04:28:35.537Z,22
2019-05-13T04:29:35.507Z,22
2019-05-13T04:30:35.542Z,23
2019-05-13T04:31:35.609Z,25
2019-05-13T04:32:35.614Z,25
2019-05-13T04:33:35.550Z,27
2019-05-13T04:34:35.614Z,26
2019-05-13T04:35:35.558Z,26
2019-05-13T04:36:35.616Z,27
2019-05-13T04:37:35.541Z,26
2019-05-13T04:38:35.564Z,26
2019-05-13T04:39:45.880Z,28
2019-05-13T04:40:35.544Z,28
2019-05-13T04:41:35.559Z,29
2019-05-13T04:42:35.622Z,29
2019-05-13T04:43:35.555Z,29
2019-05-13T04:44:35.578Z,31
2019-05-13T04:45:35.627Z,32
2019-05-13T04:46:35.565Z,33
2019-05-13T04:47:35.564Z,33
2019-05-13T04:48:39.383Z,34
2019-05-13T04:49:35.564Z,33
2019-05-13T04:50:35.565Z,35
2019-05-13T04:51:35.702Z,35
2019-05-13T04:52:35.567Z,35
2019-05-13T04:53:35.571Z,35
2019-05-13T04:54:35.638Z,34
2019-05-13T04:55:35.601Z,36
2019-05-13T04:56:35.634Z,36
2019-05-13T04:57:35.641Z,36
2019-05-13T04:58:35.564Z,36
2019-05-13T04:59:40.063Z,37
2019-05-13T05:00:35.560Z,36
2019-05-13T05:01:40.176Z,37
2019-05-13T05:02:39.900Z,37
2019-05-13T05:03:44.571Z,37
2019-05-13T05:04:35.656Z,37
2019-05-13T05:05:35.546Z,37
2019-05-13T05:06:35.657Z,37
2019-05-13T05:07:35.571Z,38
2019-05-13T05:08:35.580Z,38
2019-05-13T05:09:40.409Z,39
2019-05-13T05:10:38.831Z,40
2019-05-13T05:11:35.654Z,41
2019-05-13T05:12:35.657Z,41
2019-05-13T05:13:35.601Z,40
2019-05-13T05:14:35.587Z,40
2019-05-13T05:15:35.585Z,42
2019-05-13T05:16:35.573Z,41
2019-05-13T05:17:35.538Z,42
2019-05-13T05:18:35.581Z,43
2019-05-13T05:19:35.482Z,37
2019-05-13T05:20:35.516Z,44
2019-05-13T05:21:35.471Z,44
2019-05-13T05:22:35.534Z,45
2019-05-13T05:23:35.523Z,46
2019-05-13T05:24:35.482Z,47
2019-05-13T05:25:35.592Z,47
2019-05-13T05:26:35.645Z,47
2019-05-13T05:27:35.561Z,48
2019-05-13T05:28:35.589Z,48
2019-05-13T05:29:35.649Z,48
2019-05-13T05:30:35.564Z,49
2019-05-13T05:31:35.605Z,49
2019-05-13T05:32:36.068Z,49
2019-05-13T05:33:35.664Z,49
2019-05-13T05:34:35.585Z,49
2019-05-13T05:35:35.581Z,49
2019-05-13T05:36:35.599Z,50
2019-05-13T05:37:35.669Z,50
2019-05-13T05:38:35.672Z,51
2019-05-13T05:39:35.684Z,50
2019-05-13T05:40:35.670Z,51
2019-05-13T05:41:35.672Z,51
2019-05-13T05:42:35.671Z,51
2019-05-13T05:43:35.670Z,51
2019-05-13T05:44:35.679Z,51
2019-05-13T05:45:35.675Z,52
2019-05-13T05:46:35.630Z,53
2019-05-13T05:47:35.676Z,53
2019-05-13T05:48:35.610Z,54
2019-05-13T05:49:35.622Z,55
2019-05-13T05:50:35.693Z,52
2019-05-13T05:51:35.675Z,55
2019-05-13T05:52:35.612Z,56
2019-05-13T05:53:35.617Z,57
2019-05-13T05:54:35.616Z,57
2019-05-13T05:55:35.614Z,58
2019-05-13T05:56:35.685Z,59
2019-05-13T05:57:35.619Z,61
2019-05-13T05:58:35.669Z,62
2019-05-13T05:59:35.686Z,64
2019-05-13T06:00:35.688Z,65
2019-05-13T06:01:37.437Z,63
2019-05-13T06:02:35.626Z,63
2019-05-13T06:03:35.691Z,35
2019-05-13T06:04:35.690Z,62
2019-05-13T06:05:35.617Z,62
2019-05-13T06:06:35.703Z,62
2019-05-13T06:07:35.622Z,61
2019-05-13T06:08:35.695Z,61
2019-05-13T06:09:35.695Z,62
2019-05-13T06:10:46.702Z,62
2019-05-13T06:11:35.642Z,64
2019-05-13T06:12:35.695Z,66
2019-05-13T06:13:35.631Z,67
2019-05-13T06:14:35.698Z,66
2019-05-13T06:15:35.700Z,65
2019-05-13T06:16:35.686Z,113
2019-05-13T06:17:35.684Z,135
2019-05-13T06:18:35.597Z,137
2019-05-13T06:19:35.628Z,138
2019-05-13T06:20:35.566Z,168
2019-05-13T06:21:35.569Z,173
2019-05-13T06:22:35.693Z,167
2019-05-13T06:23:35.688Z,181
2019-05-13T06:24:35.592Z,182
2019-05-13T06:25:35.597Z,214
2019-05-13T06:26:35.732Z,222
2019-05-13T06:27:35.596Z,212
2019-05-13T06:28:35.621Z,224
2019-05-13T06:29:35.579Z,229
2019-05-13T06:30:35.622Z,233
2019-05-13T06:31:35.626Z,232
2019-05-13T06:32:35.698Z,223
2019-05-13T06:33:35.629Z,279
2019-05-13T06:34:35.699Z,315
2019-05-13T06:35:35.698Z,317
2019-05-13T06:36:35.705Z,319
2019-05-13T06:37:35.641Z,324
2019-05-13T06:38:35.650Z,319
2019-05-13T06:39:35.704Z,321
2019-05-13T06:40:35.618Z,323
2019-05-13T06:41:35.643Z,333
2019-05-13T06:42:35.695Z,376
2019-05-13T06:43:35.641Z,377
2019-05-13T06:44:35.632Z,382
2019-05-13T06:45:35.584Z,382
2019-05-13T06:46:35.588Z,388
2019-05-13T06:47:36.252Z,389
2019-05-13T06:48:35.583Z,393
2019-05-13T06:49:35.667Z,397
2019-05-13T06:50:35.613Z,436
2019-05-13T06:51:35.703Z,441
2019-05-13T06:52:35.692Z,479
2019-05-13T06:53:35.711Z,497
2019-05-13T06:54:35.699Z,498
2019-05-13T06:55:35.625Z,500
2019-05-13T06:56:35.675Z,504
2019-05-13T06:57:35.626Z,506
2019-05-13T06:58:35.716Z,555
2019-05-13T06:59:35.649Z,549
2019-05-13T07:00:35.723Z,565
2019-05-13T07:01:35.731Z,568
2019-05-13T07:02:35.629Z,569
2019-05-13T07:03:35.644Z,574
2019-05-13T07:04:35.658Z,576
2019-05-13T07:05:35.722Z,573
2019-05-13T07:06:35.652Z,583
2019-05-13T07:07:35.673Z,633
2019-05-13T07:08:35.772Z,639
2019-05-13T07:09:35.739Z,639
2019-05-13T07:10:35.737Z,645
2019-05-13T07:11:35.750Z,655
2019-05-13T07:12:35.672Z,652
2019-05-13T07:13:35.669Z,652
2019-05-13T07:14:35.672Z,649
2019-05-13T07:15:35.743Z,638
2019-05-13T07:16:35.680Z,642
2019-05-13T07:17:35.628Z,660
2019-05-13T07:18:35.663Z,665
2019-05-13T07:19:35.623Z,727
2019-05-13T07:20:35.657Z,729
2019-05-13T07:21:35.735Z,726
2019-05-13T07:22:35.743Z,730
2019-05-13T07:23:35.727Z,740
2019-05-13T07:24:35.628Z,742
2019-05-13T07:25:35.640Z,743
2019-05-13T07:26:35.731Z,747
2019-05-13T07:27:35.679Z,736
2019-05-13T07:28:35.725Z,743
2019-05-13T07:29:35.748Z,751
2019-05-13T07:30:35.684Z,767
2019-05-13T07:31:35.683Z,767
2019-05-13T07:32:35.692Z,774
2019-05-13T07:33:35.760Z,762
2019-05-13T07:34:35.760Z,763
2019-05-13T07:35:37.989Z,784
2019-05-13T07:36:35.686Z,784
2019-05-13T07:37:35.672Z,791
2019-05-13T07:38:35.678Z,790
2019-05-13T07:39:35.657Z,780
2019-05-13T07:40:35.751Z,784
2019-05-13T07:41:39.493Z,787
2019-05-13T07:42:35.663Z,803
2019-05-13T07:43:35.679Z,805
2019-05-13T07:44:35.738Z,806
2019-05-13T07:45:35.674Z,817
2019-05-13T07:46:35.684Z,803
2019-05-13T07:47:35.764Z,820
2019-05-13T07:48:35.768Z,825
2019-05-13T07:49:35.772Z,825
2019-05-13T07:50:50.329Z,826
2019-05-13T07:51:35.693Z,828
2019-05-13T07:52:35.698Z,829
2019-05-13T07:53:35.767Z,840
2019-05-13T07:54:35.711Z,841
2019-05-13T07:55:35.788Z,776
2019-05-13T07:56:35.761Z,849
2019-05-13T07:57:35.757Z,847
2019-05-13T07:58:37.506Z,840
2019-05-13T07:59:35.707Z,851
2019-05-13T08:00:35.660Z,857
2019-05-13T08:01:35.678Z,862
2019-05-13T08:02:35.737Z,863
2019-05-13T08:03:35.768Z,868
2019-05-13T08:04:35.699Z,861
2019-05-13T08:05:35.764Z,863
2019-05-13T08:06:35.766Z,874
2019-05-13T08:07:35.711Z,876
2019-05-13T08:08:35.713Z,884
2019-05-13T08:09:35.719Z,884
2019-05-13T08:10:35.779Z,877
2019-05-13T08:11:53.594Z,882
2019-05-13T08:12:35.781Z,893
2019-05-13T08:13:35.732Z,895
2019-05-13T08:14:35.832Z,896
2019-05-13T08:15:35.714Z,896
2019-05-13T08:16:35.716Z,888
2019-05-13T08:17:35.775Z,892
2019-05-13T08:18:35.706Z,912
2019-05-13T08:19:35.777Z,916
2019-05-13T08:20:35.707Z,913
2019-05-13T08:21:35.777Z,917
2019-05-13T08:22:35.704Z,918
2019-05-13T08:23:35.704Z,910
2019-05-13T08:24:35.701Z,922
2019-05-13T08:25:35.720Z,923
2019-05-13T08:26:37.936Z,927
2019-05-13T08:27:35.800Z,934
2019-05-13T08:28:35.705Z,942
2019-05-13T08:29:35.708Z,935
2019-05-13T08:30:35.722Z,938
2019-05-13T08:31:35.719Z,948
2019-05-13T08:32:35.787Z,948
2019-05-13T08:33:35.785Z,944
2019-05-13T08:34:35.715Z,944
2019-05-13T08:35:35.788Z,951
2019-05-13T08:36:39.154Z,952
2019-05-13T08:37:35.667Z,953
2019-05-13T08:38:35.723Z,958
2019-05-13T08:39:38.449Z,961
2019-05-13T08:40:35.731Z,958
2019-05-13T08:41:35.733Z,959
2019-05-13T08:42:35.766Z,971
2019-05-13T08:43:35.756Z,975
2019-05-13T08:44:35.702Z,977
2019-05-13T08:45:35.737Z,980
2019-05-13T08:46:35.675Z,972
2019-05-13T08:47:35.685Z,973
2019-05-13T08:48:35.620Z,977
2019-05-13T08:49:35.737Z,983
2019-05-13T08:50:35.740Z,986
2019-05-13T08:51:35.700Z,991
2019-05-13T08:52:35.729Z,994
2019-05-13T08:53:35.740Z,994
2019-05-13T08:54:35.649Z,1000
2019-05-13T08:55:35.657Z,1006
2019-05-13T08:56:35.692Z,1008
2019-05-13T08:57:35.747Z,1006
2019-05-13T08:58:35.736Z,1009
2019-05-13T08:59:35.729Z,1012
2019-05-13T09:00:35.720Z,1011
2019-05-13T09:01:35.669Z,1014
2019-05-13T09:02:35.753Z,1019
2019-05-13T09:03:35.787Z,1021
2019-05-13T09:04:35.767Z,1020
2019-05-13T09:05:35.806Z,1018
2019-05-13T09:06:35.721Z,1017
2019-05-13T09:07:35.736Z,1021
2019-05-13T09:08:35.740Z,1025
2019-05-13T09:09:35.813Z,1029
2019-05-13T09:10:35.811Z,1030
2019-05-13T09:11:35.813Z,1021
2019-05-13T09:12:38.312Z,1030
2019-05-13T09:13:35.740Z,1035
2019-05-13T09:14:35.748Z,1036
2019-05-13T09:15:35.741Z,1043
2019-05-13T09:16:35.817Z,1047
2019-05-13T09:17:35.779Z,1053
2019-05-13T09:18:35.731Z,1044
2019-05-13T09:19:35.811Z,1054
2019-05-13T09:20:35.780Z,1057
2019-05-13T09:21:35.729Z,1059
2019-05-13T09:22:35.811Z,1061
2019-05-13T09:23:35.763Z,1048
2019-05-13T09:24:37.741Z,1048
2019-05-13T09:25:35.824Z,1062
2019-05-13T09:26:35.739Z,1065
2019-05-13T09:27:35.828Z,1064
2019-05-13T09:28:35.827Z,1067
2019-05-13T09:29:35.752Z,1062
2019-05-13T09:30:35.767Z,1062
2019-05-13T09:31:35.755Z,1068
2019-05-13T09:32:35.753Z,1066
2019-05-13T09:33:35.755Z,1070
2019-05-13T09:34:35.759Z,1066
2019-05-13T09:35:35.833Z,1068
2019-05-13T09:36:35.773Z,1064
2019-05-13T09:37:35.838Z,1063
2019-05-13T09:38:35.775Z,1064
2019-05-13T09:39:35.829Z,1066
2019-05-13T09:40:35.831Z,1078
2019-05-13T09:41:40.873Z,1077
2019-05-13T09:42:48.231Z,1076
2019-05-13T09:43:35.840Z,1079
2019-05-13T09:44:35.749Z,1083
2019-05-13T09:45:35.760Z,1086
2019-05-13T09:46:35.753Z,1085
2019-05-13T09:47:35.770Z,1057
2019-05-13T09:48:35.852Z,1086
2019-05-13T09:49:35.754Z,1089
2019-05-13T09:50:36.323Z,1088
2019-05-13T09:51:35.852Z,1094
2019-05-13T09:52:39.575Z,1095
2019-05-13T09:53:35.836Z,1095
2019-05-13T09:54:35.773Z,1095
2019-05-13T09:55:35.759Z,1101
2019-05-13T09:56:35.846Z,1103
2019-05-13T09:57:35.762Z,1109
2019-05-13T09:58:35.812Z,1106
2019-05-13T09:59:35.779Z,1104
2019-05-13T10:00:35.728Z,1104
2019-05-13T10:01:35.774Z,1103
2019-05-13T10:02:35.787Z,1105
2019-05-13T10:03:51.978Z,1100
2019-05-13T10:04:35.711Z,1107
2019-05-13T10:05:35.721Z,1110
2019-05-13T10:06:35.725Z,1109
2019-05-13T10:07:35.855Z,1108
2019-05-13T10:08:35.781Z,1108
2019-05-13T10:09:35.811Z,1108
2019-05-13T10:10:35.856Z,1106
2019-05-13T10:11:35.821Z,1099
2019-05-13T10:12:35.857Z,1112
2019-05-13T10:13:35.806Z,1112
2019-05-13T10:14:35.862Z,1119
2019-05-13T10:15:35.772Z,1127
2019-05-13T10:16:35.792Z,1126
2019-05-13T10:17:35.875Z,1120
2019-05-13T10:18:35.808Z,1114
2019-05-13T10:19:35.818Z,1117
2019-05-13T10:20:35.875Z,1116
2019-05-13T10:21:35.809Z,1114
2019-05-13T10:22:35.812Z,1111
2019-05-13T10:23:35.812Z,1110
2019-05-13T10:24:35.880Z,1107
2019-05-13T10:25:35.823Z,1106
2019-05-13T10:26:35.814Z,1111
2019-05-13T10:27:35.886Z,1117
2019-05-13T10:28:35.886Z,1114
2019-05-13T10:29:35.891Z,1113
2019-05-13T10:30:35.812Z,1113
2019-05-13T10:31:35.869Z,1112
2019-05-13T10:32:35.824Z,1118
2019-05-13T10:33:35.813Z,1111
2019-05-13T10:34:35.856Z,1115
2019-05-13T10:35:35.888Z,1110
2019-05-13T10:36:35.821Z,1108
2019-05-13T10:37:35.890Z,1117
2019-05-13T10:38:35.821Z,1121
2019-05-13T10:39:35.834Z,1122
2019-05-13T10:40:35.823Z,1125
2019-05-13T10:41:35.926Z,1133
2019-05-13T10:42:35.892Z,1128
2019-05-13T10:43:40.156Z,1135
2019-05-13T10:44:35.897Z,1140
2019-05-13T10:45:35.905Z,1137
2019-05-13T10:46:35.895Z,1132
2019-05-13T10:47:35.827Z,1133
2019-05-13T10:48:35.835Z,1138
2019-05-13T10:49:35.849Z,1131
2019-05-13T10:50:35.842Z,1134
2019-05-13T10:51:35.830Z,1134
2019-05-13T10:52:35.903Z,1135
2019-05-13T10:53:35.826Z,1136
2019-05-13T10:54:35.908Z,1135
2019-05-13T10:55:35.903Z,1135
2019-05-13T10:56:35.908Z,1138
2019-05-13T10:57:35.835Z,1142
2019-05-13T10:58:35.896Z,1142
2019-05-13T10:59:35.830Z,1145
2019-05-13T11:00:35.840Z,1140
2019-05-13T11:01:35.918Z,1142
2019-05-13T11:02:35.904Z,1141
2019-05-13T11:03:35.836Z,1140
2019-05-13T11:04:35.906Z,1139
2019-05-13T11:05:41.067Z,1139
2019-05-13T11:06:35.913Z,1136
2019-05-13T11:07:35.922Z,1133
2019-05-13T11:08:35.857Z,1141
2019-05-13T11:09:35.848Z,1138
2019-05-13T11:10:35.847Z,1141
2019-05-13T11:11:35.912Z,1139
2019-05-13T11:12:35.847Z,1138
2019-05-13T11:13:52.232Z,1130
2019-05-13T11:14:35.802Z,1133
2019-05-13T11:15:40.979Z,1136
2019-05-13T11:16:35.843Z,1136
2019-05-13T11:17:35.832Z,1134
2019-05-13T11:18:35.782Z,1131
2019-05-13T11:19:37.099Z,1117
2019-05-13T11:20:35.865Z,1126
2019-05-13T11:21:35.835Z,1126
2019-05-13T11:22:35.851Z,1129
2019-05-13T11:23:35.891Z,1137
2019-05-13T11:24:35.869Z,1134
2019-05-13T11:25:35.867Z,1131
2019-05-13T11:26:36.665Z,1140
2019-05-13T11:27:35.924Z,1149
2019-05-13T11:28:35.920Z,1146
2019-05-13T11:29:35.872Z,1146
2019-05-13T11:30:35.858Z,1143
2019-05-13T11:31:35.857Z,1138
2019-05-13T11:32:35.932Z,1129
2019-05-13T11:33:35.929Z,1130
2019-05-13T11:34:35.939Z,1140
2019-05-13T11:35:35.930Z,1136
2019-05-13T11:36:35.863Z,1130
2019-05-13T11:37:35.934Z,1122
2019-05-13T11:38:35.932Z,1125
2019-05-13T11:39:35.872Z,1131
2019-05-13T11:40:35.959Z,1129
2019-05-13T11:41:35.936Z,1131
2019-05-13T11:42:35.898Z,1123
2019-05-13T11:43:35.868Z,1125
2019-05-13T11:44:35.937Z,1125
2019-05-13T11:45:35.870Z,1137
2019-05-13T11:46:35.953Z,1142
2019-05-13T11:47:35.938Z,1145
2019-05-13T11:48:35.893Z,1138
2019-05-13T11:49:35.942Z,1139
2019-05-13T11:50:35.955Z,1131
2019-05-13T11:51:35.934Z,1135
2019-05-13T11:52:35.875Z,1137
2019-05-13T11:53:37.754Z,1135
2019-05-13T11:54:35.871Z,1135
2019-05-13T11:55:35.948Z,1137
2019-05-13T11:56:35.954Z,1140
2019-05-13T11:57:35.940Z,1132
2019-05-13T11:58:35.870Z,1136
2019-05-13T11:59:35.973Z,1136
2019-05-13T12:00:35.939Z,1128
2019-05-13T12:01:35.866Z,1127
2019-05-13T12:02:35.876Z,1125
2019-05-13T12:03:35.852Z,1126
2019-05-13T12:04:35.865Z,1124
2019-05-13T12:05:35.940Z,1123
2019-05-13T12:06:35.869Z,1121
2019-05-13T12:07:35.890Z,1118
2019-05-13T12:08:35.892Z,1118
2019-05-13T12:09:35.956Z,1116
2019-05-13T12:10:35.955Z,1119
2019-05-13T12:11:35.886Z,1111
2019-05-13T12:12:35.971Z,1113
2019-05-13T12:13:35.958Z,1107
2019-05-13T12:15:46.051Z,1113
2019-05-13T12:16:35.891Z,1115
2019-05-13T12:17:35.890Z,1113
2019-05-13T12:18:43.228Z,1111
2019-05-13T12:19:35.895Z,1109
2019-05-13T12:20:35.990Z,1110
2019-05-13T12:21:41.950Z,1120
2019-05-13T12:22:35.897Z,1117
2019-05-13T12:23:35.910Z,1114
2019-05-13T12:24:35.962Z,1110
2019-05-13T12:25:35.965Z,1109
2019-05-13T12:26:35.901Z,1098
2019-05-13T12:27:35.967Z,1097
2019-05-13T12:28:36.006Z,1095
2019-05-13T12:29:35.969Z,1091
2019-05-13T12:30:35.899Z,1091
2019-05-13T12:31:35.909Z,1094
2019-05-13T12:32:35.971Z,1084
2019-05-13T12:33:35.978Z,1096
2019-05-13T12:34:40.528Z,1097
2019-05-13T12:35:35.904Z,1096
2019-05-13T12:36:35.955Z,1096
2019-05-13T12:37:35.908Z,1098
2019-05-13T12:38:35.916Z,1083
2019-05-13T12:39:35.905Z,1086
2019-05-13T12:40:35.907Z,1086
2019-05-13T12:41:35.977Z,1081
2019-05-13T12:42:42.752Z,1076
2019-05-13T12:43:35.873Z,1075
2019-05-13T12:44:59.449Z,1071
2019-05-13T12:45:35.979Z,1075
2019-05-13T12:46:35.917Z,1084
2019-05-13T12:47:35.898Z,1083
2019-05-13T12:48:35.934Z,1086
2019-05-13T12:49:36.762Z,1085
2019-05-13T12:50:35.975Z,1085
2019-05-13T12:51:35.885Z,1069
2019-05-13T12:52:35.984Z,1081
2019-05-13T12:53:35.889Z,1084
2019-05-13T12:54:35.909Z,1076
2019-05-13T12:55:35.980Z,1068
2019-05-13T12:56:35.906Z,1055
2019-05-13T12:57:35.851Z,1055
2019-05-13T12:58:35.958Z,1073
2019-05-13T12:59:35.814Z,1069
2019-05-13T13:00:35.943Z,1070
2019-05-13T13:01:35.853Z,1068
2019-05-13T13:02:35.942Z,1064
2019-05-13T13:03:35.941Z,1055
2019-05-13T13:04:35.896Z,1061
2019-05-13T13:05:37.100Z,1056
2019-05-13T13:06:40.701Z,1056
2019-05-13T13:07:41.261Z,1051
2019-05-13T13:08:43.742Z,1048
2019-05-13T13:09:35.885Z,1037
2019-05-13T13:10:36.107Z,1037
2019-05-13T13:11:35.954Z,1041
2019-05-13T13:12:36.442Z,1039
2019-05-13T13:13:56.811Z,1032
2019-05-13T13:14:39.598Z,1027
2019-05-13T13:15:41.884Z,1024
2019-05-13T13:16:35.953Z,1030
2019-05-13T13:17:35.991Z,1040
2019-05-13T13:18:35.921Z,1037
2019-05-13T13:19:35.947Z,1037
2019-05-13T13:20:42.101Z,1037
2019-05-13T13:21:37.622Z,1038
2019-05-13T13:22:35.999Z,1025
2019-05-13T13:23:35.923Z,1016
2019-05-13T13:24:36.010Z,1015
2019-05-13T13:25:35.964Z,1012
2019-05-13T13:26:35.911Z,1003
2019-05-13T13:28:03.089Z,999
2019-05-13T13:28:35.978Z,993
2019-05-13T13:29:35.997Z,996
2019-05-13T13:30:36.009Z,994
2019-05-13T13:31:35.898Z,992
2019-05-13T13:32:35.926Z,993
2019-05-13T13:33:36.006Z,990
2019-05-13T13:34:35.957Z,991
2019-05-13T13:35:35.969Z,992
2019-05-13T13:36:36.018Z,992
2019-05-13T13:37:35.932Z,989
2019-05-13T13:38:35.951Z,987
2019-05-13T13:39:36.017Z,985
2019-05-13T13:40:36.017Z,983
2019-05-13T13:41:35.889Z,978
2019-05-13T13:42:35.980Z,980
2019-05-13T13:43:37.251Z,979
2019-05-13T13:44:36.016Z,977
2019-05-13T13:46:05.786Z,976
2019-05-13T13:46:42.318Z,976
2019-05-13T13:47:36.012Z,969
2019-05-13T13:48:35.957Z,967
2019-05-13T13:49:35.891Z,962
2019-05-13T13:50:35.969Z,956
2019-05-13T13:51:35.883Z,954
2019-05-13T13:52:35.932Z,953
2019-05-13T13:53:35.884Z,946
2019-05-13T13:54:35.971Z,943
2019-05-13T13:55:35.952Z,941
2019-05-13T13:56:35.949Z,940
2019-05-13T13:57:35.911Z,937
2019-05-13T13:58:35.948Z,939
2019-05-13T13:59:36.323Z,936